createdAt,value
2022-12-27T00:02:20.264Z,47.07
2022-12-27T00:04:47.971Z,46.99
2022-12-27T00:07:15.914Z,47.20
2022-12-27T00:09:42.481Z,46.75
2022-12-27T00:12:08.891Z,46.83
2022-12-27T00:14:35.421Z,46.70
2022-12-27T00:17:01.734Z,47.18
2022-12-27T00:19:28.499Z,46.99
2022-12-27T00:21:54.980Z,46.49
2022-12-27T00:24:21.614Z,46.85
2022-12-27T00:26:47.991Z,47.00
2022-12-27T00:29:14.401Z,47.06
2022-12-27T00:31:40.738Z,46.82
2022-12-27T00:34:07.737Z,46.85
2022-12-27T00:36:35.113Z,46.85
2022-12-27T00:39:02.257Z,47.31
2022-12-27T00:41:28.891Z,47.30
2022-12-27T00:43:55.524Z,47.27
2022-12-27T00:46:22.138Z,47.14
2022-12-27T00:48:48.457Z,47.34
2022-12-27T00:51:20.283Z,47.28
2022-12-27T00:53:47.708Z,47.52
2022-12-27T00:56:20.924Z,47.37
2022-12-27T00:58:47.552Z,47.21
2022-12-27T01:01:20.605Z,47.81
2022-12-27T01:03:47.357Z,47.75
2022-12-27T01:06:17.258Z,47.29
2022-12-27T01:08:46.592Z,47.61
2022-12-27T01:11:14.077Z,47.75
2022-12-27T01:13:41.080Z,47.93
2022-12-27T01:16:16.180Z,47.90
2022-12-27T01:18:43.092Z,47.69
2022-12-27T01:21:13.145Z,47.98
2022-12-27T01:23:40.663Z,47.81
2022-12-27T01:26:12.522Z,47.73
2022-12-27T01:28:39.139Z,48.11
2022-12-27T01:31:11.473Z,47.88
2022-12-27T01:33:38.124Z,48.12
2022-12-27T01:36:19.863Z,48.37
2022-12-27T01:38:48.120Z,47.91
2022-12-27T01:41:45.367Z,48.30
2022-12-27T01:44:43.799Z,48.31
2022-12-27T01:47:35.031Z,48.32
2022-12-27T01:50:22.843Z,48.48
2022-12-27T01:53:02.754Z,48.25
2022-12-27T01:55:35.171Z,48.64
2022-12-27T01:58:39.299Z,48.68
2022-12-27T02:01:09.331Z,48.39
2022-12-27T02:03:45.291Z,48.29
2022-12-27T02:06:13.887Z,48.35
2022-12-27T02:08:58.038Z,48.96
2022-12-27T02:11:51.434Z,48.76
2022-12-27T02:14:32.260Z,48.76
2022-12-27T02:17:05.278Z,48.59
2022-12-27T02:19:40.782Z,49.09
2022-12-27T02:23:03.449Z,49.15
2022-12-27T02:25:42.380Z,48.68
2022-12-27T02:28:19.857Z,48.68
2022-12-27T02:30:49.449Z,48.83
2022-12-27T02:33:24.659Z,49.29
2022-12-27T02:35:57.306Z,49.30
2022-12-27T02:38:31.330Z,49.14
2022-12-27T02:41:21.268Z,49.00
2022-12-27T02:44:06.445Z,49.30
2022-12-27T02:46:51.606Z,48.81
2022-12-27T02:49:54.383Z,49.31
2022-12-27T02:53:08.124Z,49.41
2022-12-27T02:56:18.224Z,49.30
2022-12-27T02:59:22.433Z,49.85
2022-12-27T03:02:13.791Z,49.10
2022-12-27T03:04:55.424Z,49.22
2022-12-27T03:07:27.947Z,49.21
2022-12-27T03:10:42.641Z,49.53
2022-12-27T03:13:27.458Z,49.14
2022-12-27T03:16:05.731Z,49.78
2022-12-27T03:18:41.675Z,49.54
2022-12-27T03:21:27.810Z,49.53
2022-12-27T03:24:15.288Z,49.74
2022-12-27T03:26:46.339Z,49.21
2022-12-27T03:29:34.738Z,49.58
2022-12-27T03:32:24.929Z,49.80
2022-12-27T03:34:56.491Z,49.37
2022-12-27T03:37:47.887Z,49.59
2022-12-27T03:40:30.757Z,50.21
2022-12-27T03:43:12.465Z,50.26
2022-12-27T03:46:11.954Z,49.68
2022-12-27T03:48:53.875Z,49.88
2022-12-27T03:51:23.637Z,49.86
2022-12-27T03:53:54.976Z,49.66
2022-12-27T03:56:21.795Z,49.96
2022-12-27T03:58:48.334Z,49.81
2022-12-27T04:01:15.133Z,50.20
2022-12-27T04:03:41.745Z,50.06
2022-12-27T04:06:08.145Z,49.76
2022-12-27T04:08:53.305Z,49.56
2022-12-27T04:11:38.527Z,49.86
2022-12-27T04:14:23.672Z,50.16
2022-12-27T04:17:08.697Z,49.84
2022-12-27T04:19:53.884Z,50.16
2022-12-27T04:22:39.064Z,49.92
2022-12-27T04:25:24.225Z,50.21
2022-12-27T04:28:09.392Z,49.98
2022-12-27T04:30:54.589Z,50.11
2022-12-27T04:33:39.618Z,50.31
2022-12-27T04:36:06.811Z,50.18
2022-12-27T04:38:33.336Z,50.00
2022-12-27T04:41:19.843Z,49.85
2022-12-27T04:44:04.942Z,50.13
2022-12-27T04:46:50.101Z,50.44
2022-12-27T04:49:41.711Z,50.18
2022-12-27T04:52:32.293Z,50.08
2022-12-27T04:55:01.027Z,49.95
2022-12-27T04:57:28.009Z,50.53
2022-12-27T05:00:12.880Z,50.10
2022-12-27T05:02:40.247Z,50.30
2022-12-27T05:05:07.866Z,50.46
2022-12-27T05:07:53.001Z,50.23
2022-12-27T05:10:38.029Z,50.76
2022-12-27T05:13:23.013Z,50.67
2022-12-27T05:15:49.999Z,50.48
2022-12-27T05:18:16.590Z,50.17
2022-12-27T05:20:43.145Z,50.39
2022-12-27T05:23:28.053Z,50.58
2022-12-27T05:25:54.423Z,50.32
2022-12-27T05:28:20.875Z,50.56
2022-12-27T05:30:47.427Z,50.80
2022-12-27T05:33:13.859Z,50.87
2022-12-27T05:35:40.685Z,50.59
2022-12-27T05:38:07.622Z,50.58
2022-12-27T05:40:34.394Z,50.82
2022-12-27T05:43:02.736Z,50.80
2022-12-27T05:45:29.696Z,50.94
2022-12-27T05:47:56.415Z,50.95
2022-12-27T05:50:22.988Z,50.97
2022-12-27T05:52:49.549Z,51.00
2022-12-27T05:55:16.074Z,50.87
2022-12-27T05:57:42.631Z,51.03
2022-12-27T06:00:11.413Z,50.72
2022-12-27T06:02:39.322Z,50.25
2022-12-27T06:05:06.106Z,50.84
2022-12-27T06:07:32.727Z,50.53
2022-12-27T06:09:59.351Z,50.62
2022-12-27T06:12:25.739Z,50.52
2022-12-27T06:14:52.253Z,50.40
2022-12-27T06:17:18.648Z,50.11
2022-12-27T06:19:45.164Z,50.63
2022-12-27T06:22:11.850Z,50.13
2022-12-27T06:24:38.400Z,50.12
2022-12-27T06:27:05.086Z,50.23
2022-12-27T06:29:31.462Z,50.59
2022-12-27T06:31:58.074Z,49.93
2022-12-27T06:34:24.649Z,50.34
2022-12-27T06:36:51.540Z,50.23
2022-12-27T06:39:18.624Z,50.57
2022-12-27T06:41:45.071Z,50.01
2022-12-27T06:44:11.667Z,50.35
2022-12-27T06:46:38.370Z,50.25
2022-12-27T06:49:04.903Z,50.19
2022-12-27T06:51:31.262Z,50.21
2022-12-27T06:53:57.732Z,50.21
2022-12-27T06:56:24.124Z,49.97
2022-12-27T06:58:51.761Z,50.37
2022-12-27T07:01:21.155Z,50.34
2022-12-27T07:03:53.232Z,50.18
2022-12-27T07:06:21.136Z,50.23
2022-12-27T07:08:49.296Z,50.30
2022-12-27T07:11:17.231Z,50.27
2022-12-27T07:13:46.174Z,50.57
2022-12-27T07:16:15.413Z,50.31
2022-12-27T07:18:42.638Z,50.55
2022-12-27T07:21:12.068Z,50.54
2022-12-27T07:23:38.631Z,50.34
2022-12-27T07:26:11.036Z,50.69
2022-12-27T07:28:38.174Z,50.66
2022-12-27T07:31:13.654Z,50.33
2022-12-27T07:33:41.595Z,50.46
2022-12-27T07:36:12.474Z,50.38
2022-12-27T07:38:39.309Z,50.24
2022-12-27T07:41:06.130Z,50.34
2022-12-27T07:43:33.986Z,50.09
2022-12-27T07:46:10.595Z,50.37
2022-12-27T07:48:37.573Z,49.98
2022-12-27T07:51:05.333Z,50.39
2022-12-27T07:53:32.778Z,50.37
2022-12-27T07:55:59.729Z,50.15
2022-12-27T07:58:26.084Z,50.86
2022-12-27T08:00:53.396Z,50.58
2022-12-27T08:03:19.934Z,50.83
2022-12-27T08:05:52.577Z,50.75
2022-12-27T08:08:22.740Z,50.87
2022-12-27T08:10:49.539Z,50.53
2022-12-27T08:13:16.058Z,50.73
2022-12-27T08:15:43.773Z,50.40
2022-12-27T08:18:10.442Z,50.89
2022-12-27T08:20:37.196Z,50.47
2022-12-27T08:23:04.226Z,50.67
2022-12-27T08:25:30.976Z,50.55
2022-12-27T08:28:08.656Z,50.75
2022-12-27T08:30:38.784Z,50.94
2022-12-27T08:33:05.304Z,50.47
2022-12-27T08:35:52.098Z,50.79
2022-12-27T08:38:18.173Z,50.60
2022-12-27T08:40:45.522Z,50.71
2022-12-27T08:43:12.981Z,50.68
2022-12-27T08:45:39.665Z,50.88
2022-12-27T08:48:07.161Z,50.77
2022-12-27T08:50:34.099Z,51.16
2022-12-27T08:53:03.795Z,50.80
2022-12-27T08:55:30.954Z,51.35
2022-12-27T08:58:02.303Z,50.96
2022-12-27T09:00:29.754Z,51.19
2022-12-27T09:02:56.891Z,51.30
2022-12-27T09:05:24.837Z,50.76
2022-12-27T09:07:51.447Z,50.69
2022-12-27T09:10:18.331Z,50.97
2022-12-27T09:12:46.010Z,51.21
2022-12-27T09:15:12.804Z,51.36
2022-12-27T09:17:40.119Z,51.07
2022-12-27T09:20:07.897Z,50.78
2022-12-27T09:22:35.615Z,51.10
2022-12-27T09:25:02.095Z,51.18
2022-12-27T09:27:28.686Z,50.50
2022-12-27T09:29:58.607Z,50.65
2022-12-27T09:32:27.347Z,51.23
2022-12-27T09:34:54.514Z,50.95
2022-12-27T09:37:21.940Z,50.70
2022-12-27T09:39:48.677Z,50.73
2022-12-27T09:43:04.378Z,50.46
2022-12-27T09:45:34.230Z,50.26
2022-12-27T09:48:02.660Z,50.43
2022-12-27T09:50:39.692Z,50.27
2022-12-27T09:53:21.731Z,50.15
2022-12-27T09:55:58.099Z,50.58
2022-12-27T09:58:45.784Z,50.13
2022-12-27T10:01:21.708Z,49.75
2022-12-27T10:03:51.548Z,50.80
2022-12-27T10:06:29.312Z,50.62
2022-12-27T10:09:18.974Z,50.78
2022-12-27T10:12:06.144Z,50.08
2022-12-27T10:14:44.664Z,50.55
2022-12-27T10:17:35.042Z,49.80
2022-12-27T10:20:01.529Z,50.24
2022-12-27T10:22:50.186Z,49.99
2022-12-27T10:25:21.287Z,49.79
2022-12-27T10:27:48.417Z,49.31
2022-12-27T10:30:18.335Z,50.16
2022-12-27T10:32:45.442Z,49.49
2022-12-27T10:35:16.505Z,49.75
2022-12-27T10:37:44.440Z,49.58
2022-12-27T10:40:27.624Z,49.05
2022-12-27T10:43:18.365Z,48.99
2022-12-27T10:45:45.268Z,49.71
2022-12-27T10:48:21.041Z,49.63
2022-12-27T10:50:52.153Z,49.30
2022-12-27T10:53:36.374Z,49.10
2022-12-27T10:56:12.093Z,49.41
2022-12-27T10:58:56.523Z,49.42
2022-12-27T11:01:28.632Z,49.44
2022-12-27T11:04:22.199Z,49.51
2022-12-27T11:06:52.316Z,49.07
2022-12-27T11:09:24.974Z,49.52
2022-12-27T11:11:51.507Z,49.73
2022-12-27T11:14:20.561Z,49.25
2022-12-27T11:16:48.952Z,48.55
2022-12-27T11:19:25.790Z,48.80
2022-12-27T11:21:55.158Z,48.65
2022-12-27T11:24:22.563Z,49.09
2022-12-27T11:26:58.194Z,49.36
2022-12-27T11:29:30.668Z,48.96
2022-12-27T11:32:03.961Z,49.65
2022-12-27T11:34:34.156Z,48.71
2022-12-27T11:37:13.127Z,49.16
2022-12-27T11:39:45.105Z,49.67
2022-12-27T11:42:38.354Z,48.98
2022-12-27T11:45:23.644Z,48.76
2022-12-27T11:47:54.501Z,49.40
2022-12-27T11:50:26.931Z,49.21
2022-12-27T11:53:38.870Z,49.11
2022-12-27T11:56:28.405Z,48.74
2022-12-27T11:59:30.608Z,48.09
2022-12-27T12:02:08.129Z,49.35
2022-12-27T12:05:07.982Z,49.22
2022-12-27T12:07:59.104Z,48.41
2022-12-27T12:10:48.367Z,48.24
2022-12-27T12:13:33.001Z,48.42
2022-12-27T12:16:05.508Z,48.91
2022-12-27T12:18:54.010Z,47.97
2022-12-27T12:21:59.609Z,47.78
2022-12-27T12:25:23.424Z,48.54
2022-12-27T12:28:55.645Z,48.10
2022-12-27T12:31:33.178Z,47.80
2022-12-27T12:34:21.431Z,47.41
2022-12-27T12:37:14.205Z,47.32
2022-12-27T12:39:48.154Z,48.01
2022-12-27T12:42:27.161Z,48.32
2022-12-27T12:45:09.911Z,47.08
2022-12-27T12:48:09.329Z,47.57
2022-12-27T12:51:16.191Z,47.40
2022-12-27T12:53:45.551Z,47.83
2022-12-27T12:56:42.752Z,47.81
2022-12-27T12:59:21.423Z,48.10
2022-12-27T13:02:29.061Z,47.19
2022-12-27T13:05:17.326Z,46.92
2022-12-27T13:07:52.472Z,46.58
2022-12-27T13:10:30.971Z,46.64
2022-12-27T13:13:02.721Z,47.44
2022-12-27T13:16:07.780Z,46.80
2022-12-27T13:18:56.084Z,46.98
2022-12-27T13:21:25.515Z,46.75
2022-12-27T13:24:13.067Z,47.07
2022-12-27T13:26:54.636Z,46.80
2022-12-27T13:29:36.367Z,47.15
2022-12-27T13:32:21.650Z,47.81
2022-12-27T13:35:28.687Z,47.30
2022-12-27T13:38:29.789Z,47.43
2022-12-27T13:41:12.668Z,47.47
2022-12-27T13:44:20.544Z,47.19
2022-12-27T13:46:57.455Z,47.76
2022-12-27T13:49:45.673Z,47.80
2022-12-27T13:52:35.474Z,47.32
2022-12-27T13:55:30.329Z,47.06
2022-12-27T13:58:21.075Z,47.26
2022-12-27T14:01:09.064Z,47.63
2022-12-27T14:04:14.441Z,47.19
2022-12-27T14:06:46.830Z,47.72
2022-12-27T14:09:25.302Z,48.08
2022-12-27T14:12:03.074Z,47.61
2022-12-27T14:14:31.233Z,47.84
2022-12-27T14:17:19.452Z,47.84
2022-12-27T14:20:04.517Z,47.62
2022-12-27T14:23:05.339Z,48.16
2022-12-27T14:25:45.763Z,47.79
2022-12-27T14:28:59.734Z,47.93
2022-12-27T14:31:52.636Z,47.77
2022-12-27T14:34:28.175Z,47.96
2022-12-27T14:37:14.171Z,47.79
2022-12-27T14:40:01.688Z,47.64
2022-12-27T14:43:06.405Z,47.41
2022-12-27T14:45:58.146Z,47.65
2022-12-27T14:49:15.274Z,47.62
2022-12-27T14:52:02.643Z,48.12
2022-12-27T14:54:55.520Z,47.20
2022-12-27T14:57:36.717Z,47.80
2022-12-27T15:00:17.159Z,48.16
2022-12-27T15:02:59.816Z,48.45
2022-12-27T15:05:45.024Z,47.79
2022-12-27T15:08:33.352Z,47.84
2022-12-27T15:11:08.181Z,47.75
2022-12-27T15:13:56.367Z,47.85
2022-12-27T15:16:36.189Z,48.34
2022-12-27T15:20:07.232Z,47.84
2022-12-27T15:23:00.707Z,48.75
2022-12-27T15:25:39.162Z,48.05
2022-12-27T15:28:24.239Z,48.48
2022-12-27T15:31:09.672Z,48.30
2022-12-27T15:34:11.585Z,48.13
2022-12-27T15:36:45.546Z,48.48
2022-12-27T15:39:33.454Z,48.17
2022-12-27T15:42:48.284Z,48.37
2022-12-27T15:45:46.035Z,48.04
2022-12-27T15:48:36.593Z,48.59
2022-12-27T15:51:30.762Z,48.38
2022-12-27T15:54:07.281Z,48.86
2022-12-27T15:56:46.802Z,48.67
2022-12-27T15:59:35.616Z,48.36
2022-12-27T16:02:17.358Z,48.50
2022-12-27T16:04:53.596Z,48.62
2022-12-27T16:07:42.871Z,49.24
2022-12-27T16:10:32.617Z,48.67
2022-12-27T16:13:05.053Z,48.35
2022-12-27T16:15:44.612Z,48.42
2022-12-27T16:18:17.763Z,49.15
2022-12-27T16:21:01.999Z,48.75
2022-12-27T16:23:35.771Z,48.48
2022-12-27T16:26:19.749Z,49.04
2022-12-27T16:29:12.289Z,48.26
2022-12-27T16:31:45.829Z,48.38
2022-12-27T16:34:20.528Z,49.13
2022-12-27T16:36:48.377Z,48.70
2022-12-27T16:39:32.687Z,48.45
2022-12-27T16:42:02.648Z,48.63
2022-12-27T16:44:51.791Z,48.79
2022-12-27T16:47:55.954Z,48.84
2022-12-27T16:50:40.678Z,49.13
2022-12-27T16:53:17.491Z,48.65
2022-12-27T16:56:09.898Z,48.91
2022-12-27T16:58:38.393Z,48.95
2022-12-27T17:01:50.979Z,48.59
2022-12-27T17:04:50.126Z,48.07
2022-12-27T17:07:47.828Z,48.37
2022-12-27T17:10:32.786Z,48.41
2022-12-27T17:13:11.383Z,48.06
2022-12-27T17:15:49.276Z,48.09
2022-12-27T17:18:45.480Z,47.86
2022-12-27T17:21:29.823Z,47.71
2022-12-27T17:24:01.257Z,47.69
2022-12-27T17:27:02.426Z,48.17
2022-12-27T17:29:31.755Z,47.21
2022-12-27T17:32:16.899Z,46.99
2022-12-27T17:35:15.393Z,47.35
2022-12-27T17:38:09.839Z,47.79
2022-12-27T17:41:01.583Z,47.49
2022-12-27T17:44:14.619Z,46.61
2022-12-27T17:46:59.456Z,47.01
2022-12-27T17:49:32.046Z,46.99
2022-12-27T17:52:19.524Z,47.47
2022-12-27T17:55:04.859Z,47.74
2022-12-27T17:57:50.154Z,47.25
2022-12-27T18:00:40.364Z,47.25
2022-12-27T18:03:11.870Z,47.41
2022-12-27T18:05:41.920Z,46.94
2022-12-27T18:08:17.248Z,46.89
2022-12-27T18:10:45.754Z,46.80
2022-12-27T18:13:17.262Z,46.94
2022-12-27T18:15:45.481Z,47.41
2022-12-27T18:18:18.523Z,46.65
2022-12-27T18:20:45.096Z,46.56
2022-12-27T18:23:11.883Z,47.16
2022-12-27T18:25:44.322Z,46.36
2022-12-27T18:28:33.766Z,46.73
2022-12-27T18:31:39.449Z,46.09
2022-12-27T18:34:14.796Z,46.53
2022-12-27T18:36:57.653Z,46.18
2022-12-27T18:39:36.816Z,46.13
2022-12-27T18:42:16.624Z,46.00
2022-12-27T18:44:47.890Z,46.53
2022-12-27T18:47:26.885Z,46.29
2022-12-27T18:49:58.493Z,45.76
2022-12-27T18:52:30.941Z,46.47
2022-12-27T18:55:17.705Z,45.69
2022-12-27T18:57:44.224Z,46.33
2022-12-27T19:00:26.679Z,46.37
2022-12-27T19:03:11.840Z,46.36
2022-12-27T19:05:38.892Z,46.88
2022-12-27T19:08:20.209Z,46.29
2022-12-27T19:10:49.403Z,46.96
2022-12-27T19:13:27.769Z,46.18
2022-12-27T19:15:56.563Z,47.03
2022-12-27T19:18:27.540Z,46.46
2022-12-27T19:21:01.850Z,46.88
2022-12-27T19:23:35.730Z,46.77
2022-12-27T19:26:17.451Z,46.59
2022-12-27T19:28:57.172Z,46.81
2022-12-27T19:31:24.701Z,47.12
2022-12-27T19:33:55.659Z,46.61
2022-12-27T19:36:32.170Z,46.77
2022-12-27T19:38:59.992Z,46.51
2022-12-27T19:41:27.224Z,46.90
2022-12-27T19:43:54.705Z,47.10
2022-12-27T19:46:27.112Z,46.54
2022-12-27T19:49:31.823Z,46.57
2022-12-27T19:51:43.450Z,46.84
2022-12-27T19:54:19.537Z,46.64
2022-12-27T19:56:46.458Z,46.79
2022-12-27T19:59:17.833Z,47.10
2022-12-27T20:01:48.651Z,46.71
2022-12-27T20:04:17.416Z,46.75
2022-12-27T20:06:47.609Z,47.10
2022-12-27T20:09:18.448Z,46.64
2022-12-27T20:11:45.373Z,46.96
2022-12-27T20:14:13.221Z,47.10
2022-12-27T20:16:40.250Z,46.81
2022-12-27T20:19:10.797Z,47.08
2022-12-27T20:21:41.102Z,47.17
2022-12-27T20:24:12.042Z,46.92
2022-12-27T20:26:40.247Z,46.93
2022-12-27T20:29:06.787Z,47.35
2022-12-27T20:31:33.253Z,47.48
2022-12-27T20:33:59.745Z,46.89
2022-12-27T20:36:26.108Z,47.39
2022-12-27T20:38:53.010Z,47.32
2022-12-27T20:41:20.883Z,47.27
2022-12-27T20:43:47.559Z,46.86
2022-12-27T20:46:16.720Z,47.05
2022-12-27T20:48:45.147Z,47.03
2022-12-27T20:51:14.490Z,47.19
2022-12-27T20:53:41.134Z,47.21
2022-12-27T20:56:08.953Z,47.18
2022-12-27T20:58:36.399Z,47.24
2022-12-27T21:01:11.679Z,46.38
2022-12-27T21:03:40.185Z,47.12
2022-12-27T21:06:08.887Z,47.11
2022-12-27T21:08:40.463Z,47.04
2022-12-27T21:11:17.376Z,46.82
2022-12-27T21:13:44.716Z,46.75
2022-12-27T21:16:26.259Z,46.47
2022-12-27T21:18:53.276Z,46.86
2022-12-27T21:21:27.719Z,46.56
2022-12-27T21:23:57.017Z,46.88
2022-12-27T21:26:28.241Z,46.83
2022-12-27T21:28:55.437Z,46.93
2022-12-27T21:31:22.327Z,47.07
2022-12-27T21:33:49.543Z,46.89
2022-12-27T21:36:19.064Z,46.97
2022-12-27T21:38:46.282Z,47.04
2022-12-27T21:41:15.571Z,46.80
2022-12-27T21:43:42.752Z,46.63
2022-12-27T21:46:13.715Z,46.71
2022-12-27T21:48:40.467Z,47.29
2022-12-27T21:51:12.414Z,46.44
2022-12-27T21:53:39.483Z,46.80
2022-12-27T21:56:06.656Z,46.76
2022-12-27T21:58:34.813Z,47.13
2022-12-27T22:01:08.873Z,46.59
2022-12-27T22:03:38.233Z,47.07
2022-12-27T22:06:15.032Z,46.46
2022-12-27T22:08:42.962Z,46.84
2022-12-27T22:11:09.959Z,46.86
2022-12-27T22:13:37.402Z,46.86
2022-12-27T22:16:06.649Z,46.79
2022-12-27T22:18:35.496Z,46.80
2022-12-27T22:21:04.926Z,47.10
2022-12-27T22:23:37.680Z,46.59
2022-12-27T22:26:05.329Z,47.02
2022-12-27T22:28:32.205Z,46.94
2022-12-27T22:30:58.580Z,46.77
2022-12-27T22:33:24.969Z,46.44
2022-12-27T22:35:51.408Z,47.24
2022-12-27T22:38:20.120Z,46.70
2022-12-27T22:40:47.021Z,46.80
2022-12-27T22:43:13.825Z,47.04
2022-12-27T22:45:42.081Z,47.00
2022-12-27T22:48:08.645Z,46.66
2022-12-27T22:50:37.999Z,46.90
2022-12-27T22:53:04.625Z,46.85
2022-12-27T22:55:30.976Z,46.89
2022-12-27T22:57:57.358Z,46.35
2022-12-27T23:00:23.812Z,46.71
2022-12-27T23:02:50.667Z,46.99
2022-12-27T23:05:17.242Z,46.53
2022-12-27T23:08:05.219Z,46.88
2022-12-27T23:10:30.339Z,46.52
2022-12-27T23:12:57.006Z,46.65
2022-12-27T23:15:23.390Z,46.67
2022-12-27T23:17:49.767Z,46.30
2022-12-27T23:20:16.235Z,46.77
2022-12-27T23:22:42.622Z,46.29
2022-12-27T23:25:09.188Z,46.66
2022-12-27T23:27:35.696Z,46.81
2022-12-27T23:30:02.338Z,46.57
2022-12-27T23:32:28.669Z,46.20
2022-12-27T23:34:55.193Z,46.51
2022-12-27T23:37:21.731Z,46.75
2022-12-27T23:39:48.097Z,46.62
2022-12-27T23:42:14.414Z,46.43
2022-12-27T23:44:40.975Z,46.29
2022-12-27T23:47:07.615Z,46.30
2022-12-27T23:49:34.902Z,46.76
2022-12-27T23:52:02.995Z,46.88
2022-12-27T23:54:29.433Z,46.49
2022-12-27T23:56:55.861Z,46.21
2022-12-27T23:59:22.231Z,46.83
